Stolt Aguila — ZCYX9 — position and weather

sailwx.info

Track history (hours):
 
Tides and Currents Weather Stations Pressure Air Temp Water Temp Dewpoint Dewpoint Depression Visibility Wind Speed Wind Dir Waves Ship Positions

Stolt Aguila

Last reported at 2017-Nov-24 07:29 UTC. Time now 2017-Nov-24 07:43 UTC.
Position N 29°37' W 095°01'.

Length 124 m; draft 7.2 m.

Type: Ship (hazmat cat B). MMSI: 319014200.

Date/timePositionNaut miles runAvg speedWind from/ knotsBaromVisibWave heightAir tempDewpointWater temp
2017-Nov-24 07:29N 29°37' W 095°01'0 0.0
2017-Nov-24 06:59N 29°37' W 095°01'0 0.0
2017-Nov-24 06:29N 29°37' W 095°01'0 0.0
2017-Nov-24 05:59N 29°37' W 095°01'0 0.0
2017-Nov-24 05:29N 29°37' W 095°01'0 0.0
2017-Nov-24 04:59N 29°37' W 095°01'0 0.0
2017-Nov-24 04:29N 29°37' W 095°01'0 0.0
2017-Nov-24 03:59N 29°37' W 095°01'0 0.0
2017-Nov-24 03:29N 29°37' W 095°01'0 0.0
2017-Nov-24 02:59N 29°37' W 095°01'0 0.0
2017-Nov-24 02:29N 29°37' W 095°01'0 0.6
2017-Nov-24 02:00N 29°37' W 095°01'3 5.6
2017-Nov-24 01:30N 29°37' W 094°58'510.3
2017-Nov-24 01:00N 29°33' W 094°54'610.4
2017-Nov-24 00:29N 29°28' W 094°51'6 2.3
2017-Nov-23 22:01N 29°22' W 094°50'0 9.3
2017-Nov-23 21:59N 29°22' W 094°51'2 0.1
2017-Nov-23 01:13N 29°23' W 094°53'2 8.0
2017-Nov-23 00:59N 29°22' W 094°51'  
2017-Nov-17 14:00N 29°30' W 094°52'612.2
2017-Nov-17 13:30N 29°35' W 094°56'5 9.5
2017-Nov-17 13:00N 29°39' W 094°58'5 9.2
2017-Nov-17 12:30N 29°43' W 095°01'4 8.0
2017-Nov-17 12:00N 29°46' W 095°04'1 0.1
2017-Nov-16 12:44N 29°45' W 095°06'0 1.4
2017-Nov-16 12:25N 29°45' W 095°06'3 6.2
2017-Nov-16 12:00N 29°44' W 095°03'4 8.6
2017-Nov-16 11:30N 29°41' W 094°59'612.9
2017-Nov-16 11:00N 29°35' W 094°56'713.6
2017-Nov-16 10:30N 29°30' W 094°52'  
Track history (hours):
 
Tides and Currents Weather Stations Pressure Air Temp Water Temp Dewpoint Dewpoint Depression Visibility Wind Speed Wind Dir Waves Ship Positions

Stolt Aguila

Last reported at 2017-Nov-24 07:29 UTC. Time now 2017-Nov-24 07:43 UTC.
Position N 29°37' W 095°01'.

Length 124 m; draft 7.2 m.

Type: Ship (hazmat cat B). MMSI: 319014200.

Date/timePositionNaut miles runAvg speedWind from/ knotsBaromVisibWave heightAir tempDewpointWater temp
2017-Nov-24 07:29N 29°37' W 095°01'0 0.0
2017-Nov-24 06:59N 29°37' W 095°01'0 0.0
2017-Nov-24 06:29N 29°37' W 095°01'0 0.0
2017-Nov-24 05:59N 29°37' W 095°01'0 0.0
2017-Nov-24 05:29N 29°37' W 095°01'0 0.0
2017-Nov-24 04:59N 29°37' W 095°01'0 0.0
2017-Nov-24 04:29N 29°37' W 095°01'0 0.0
2017-Nov-24 03:59N 29°37' W 095°01'0 0.0
2017-Nov-24 03:29N 29°37' W 095°01'0 0.0
2017-Nov-24 02:59N 29°37' W 095°01'0 0.0
2017-Nov-24 02:29N 29°37' W 095°01'0 0.6
2017-Nov-24 02:00N 29°37' W 095°01'3 5.6
2017-Nov-24 01:30N 29°37' W 094°58'510.3
2017-Nov-24 01:00N 29°33' W 094°54'610.4
2017-Nov-24 00:29N 29°28' W 094°51'6 2.3
2017-Nov-23 22:01N 29°22' W 094°50'0 9.3
2017-Nov-23 21:59N 29°22' W 094°51'2 0.1
2017-Nov-23 01:13N 29°23' W 094°53'2 8.0
2017-Nov-23 00:59N 29°22' W 094°51'  
2017-Nov-17 14:00N 29°30' W 094°52'612.2
2017-Nov-17 13:30N 29°35' W 094°56'5 9.5
2017-Nov-17 13:00N 29°39' W 094°58'5 9.2
2017-Nov-17 12:30N 29°43' W 095°01'4 8.0
2017-Nov-17 12:00N 29°46' W 095°04'1 0.1
2017-Nov-16 12:44N 29°45' W 095°06'0 1.4
2017-Nov-16 12:25N 29°45' W 095°06'3 6.2
2017-Nov-16 12:00N 29°44' W 095°03'4 8.6
2017-Nov-16 11:30N 29°41' W 094°59'612.9
2017-Nov-16 11:00N 29°35' W 094°56'713.6
2017-Nov-16 10:30N 29°30' W 094°52'  

Dump ship's entire track history